sensor_id;sensor_type;location;lat;lon;timestamp;temperature;humidity
3925;DHT22;1977;52.274;10.518;2023-08-20T00:01:28;25.40;99.90
3925;DHT22;1977;52.274;10.518;2023-08-20T00:03:55;25.40;99.90
3925;DHT22;1977;52.274;10.518;2023-08-20T00:06:23;25.40;99.90
3925;DHT22;1977;52.274;10.518;2023-08-20T00:08:51;25.40;99.90
3925;DHT22;1977;52.274;10.518;2023-08-20T00:11:18;25.40;99.90
3925;DHT22;1977;52.274;10.518;2023-08-20T00:13:46;25.50;99.90
3925;DHT22;1977;52.274;10.518;2023-08-20T00:16:13;25.50;99.90
3925;DHT22;1977;52.274;10.518;2023-08-20T00:18:40;25.50;99.90
3925;DHT22;1977;52.274;10.518;2023-08-20T00:21:08;25.50;99.90
3925;DHT22;1977;52.274;10.518;2023-08-20T00:23:35;25.50;99.90
3925;DHT22;1977;52.274;10.518;2023-08-20T00:26:03;25.50;99.90
3925;DHT22;1977;52.274;10.518;2023-08-20T00:28:30;25.60;99.90
3925;DHT22;1977;52.274;10.518;2023-08-20T00:31:00;25.60;99.90
3925;DHT22;1977;52.274;10.518;2023-08-20T00:33:27;25.60;99.90
3925;DHT22;1977;52.274;10.518;2023-08-20T00:35:55;25.60;99.90
3925;DHT22;1977;52.274;10.518;2023-08-20T00:38:21;25.60;99.90
3925;DHT22;1977;52.274;10.518;2023-08-20T00:40:48;25.60;99.90
3925;DHT22;1977;52.274;10.518;2023-08-20T00:43:15;25.60;99.90
3925;DHT22;1977;52.274;10.518;2023-08-20T00:45:42;25.60;99.90
3925;DHT22;1977;52.274;10.518;2023-08-20T00:48:11;25.70;99.90
3925;DHT22;1977;52.274;10.518;2023-08-20T00:50:39;25.60;99.90
3925;DHT22;1977;52.274;10.518;2023-08-20T00:53:06;25.60;99.90
3925;DHT22;1977;52.274;10.518;2023-08-20T00:55:35;25.60;99.90
3925;DHT22;1977;52.274;10.518;2023-08-20T00:58:03;25.70;99.90
3925;DHT22;1977;52.274;10.518;2023-08-20T01:00:30;25.60;99.90
3925;DHT22;1977;52.274;10.518;2023-08-20T01:02:57;25.60;99.90
3925;DHT22;1977;52.274;10.518;2023-08-20T01:05:25;25.60;99.90
3925;DHT22;1977;52.274;10.518;2023-08-20T01:08:00;25.50;99.90
3925;DHT22;1977;52.274;10.518;2023-08-20T01:10:37;25.50;99.90
3925;DHT22;1977;52.274;10.518;2023-08-20T01:13:07;25.70;99.90
3925;DHT22;1977;52.274;10.518;2023-08-20T01:15:34;25.40;99.90
3925;DHT22;1977;52.274;10.518;2023-08-20T01:18:01;25.40;99.90
3925;DHT22;1977;52.274;10.518;2023-08-20T01:20:35;25.40;99.90
3925;DHT22;1977;52.274;10.518;2023-08-20T01:23:48;25.40;99.90
3925;DHT22;1977;52.274;10.518;2023-08-20T01:26:40;25.40;99.90
3925;DHT22;1977;52.274;10.518;2023-08-20T01:29:15;25.40;99.90
3925;DHT22;1977;52.274;10.518;2023-08-20T01:31:43;25.40;99.90
3925;DHT22;1977;52.274;10.518;2023-08-20T01:34:10;25.40;99.90
3925;DHT22;1977;52.274;10.518;2023-08-20T01:36:38;25.40;99.90
3925;DHT22;1977;52.274;10.518;2023-08-20T01:39:05;25.40;99.90
3925;DHT22;1977;52.274;10.518;2023-08-20T01:41:32;25.30;99.90
3925;DHT22;1977;52.274;10.518;2023-08-20T01:43:59;25.40;99.90
3925;DHT22;1977;52.274;10.518;2023-08-20T01:46:28;25.40;99.90
3925;DHT22;1977;52.274;10.518;2023-08-20T01:48:56;25.40;99.90
3925;DHT22;1977;52.274;10.518;2023-08-20T01:51:23;25.40;99.90
3925;DHT22;1977;52.274;10.518;2023-08-20T01:53:49;25.40;99.90
3925;DHT22;1977;52.274;10.518;2023-08-20T01:56:16;25.40;99.90
3925;DHT22;1977;52.274;10.518;2023-08-20T01:58:43;25.30;99.90
3925;DHT22;1977;52.274;10.518;2023-08-20T02:01:10;25.30;99.90
3925;DHT22;1977;52.274;10.518;2023-08-20T02:03:39;25.30;99.90
3925;DHT22;1977;52.274;10.518;2023-08-20T02:06:05;25.30;99.90
3925;DHT22;1977;52.274;10.518;2023-08-20T02:08:32;25.20;99.90
3925;DHT22;1977;52.274;10.518;2023-08-20T02:11:00;25.20;99.90
3925;DHT22;1977;52.274;10.518;2023-08-20T02:13:27;25.20;99.90
3925;DHT22;1977;52.274;10.518;2023-08-20T02:15:58;25.30;99.90
3925;DHT22;1977;52.274;10.518;2023-08-20T02:18:25;25.30;99.90
3925;DHT22;1977;52.274;10.518;2023-08-20T02:20:53;25.40;99.90
3925;DHT22;1977;52.274;10.518;2023-08-20T02:23:20;25.20;99.90
3925;DHT22;1977;52.274;10.518;2023-08-20T02:25:47;25.30;99.90
3925;DHT22;1977;52.274;10.518;2023-08-20T02:28:14;25.20;99.90
3925;DHT22;1977;52.274;10.518;2023-08-20T02:30:42;25.10;99.90
3925;DHT22;1977;52.274;10.518;2023-08-20T02:33:09;25.10;99.90
3925;DHT22;1977;52.274;10.518;2023-08-20T02:35:36;25.10;99.90
3925;DHT22;1977;52.274;10.518;2023-08-20T02:38:05;25.20;99.90
3925;DHT22;1977;52.274;10.518;2023-08-20T02:40:31;25.20;99.90
3925;DHT22;1977;52.274;10.518;2023-08-20T02:42:58;25.20;99.90
3925;DHT22;1977;52.274;10.518;2023-08-20T02:45:25;25.20;99.90
3925;DHT22;1977;52.274;10.518;2023-08-20T02:47:52;25.20;99.90
3925;DHT22;1977;52.274;10.518;2023-08-20T02:50:19;25.20;99.90
3925;DHT22;1977;52.274;10.518;2023-08-20T02:52:45;25.20;99.90
3925;DHT22;1977;52.274;10.518;2023-08-20T02:55:14;25.20;99.90
3925;DHT22;1977;52.274;10.518;2023-08-20T02:57:40;25.20;99.90
3925;DHT22;1977;52.274;10.518;2023-08-20T03:00:08;25.10;99.90
3925;DHT22;1977;52.274;10.518;2023-08-20T03:02:36;25.00;99.90
3925;DHT22;1977;52.274;10.518;2023-08-20T03:05:05;25.00;99.90
3925;DHT22;1977;52.274;10.518;2023-08-20T03:07:32;25.00;99.90
3925;DHT22;1977;52.274;10.518;2023-08-20T03:09:59;25.00;99.90
3925;DHT22;1977;52.274;10.518;2023-08-20T03:12:27;24.90;99.90
3925;DHT22;1977;52.274;10.518;2023-08-20T03:14:54;24.90;99.90
3925;DHT22;1977;52.274;10.518;2023-08-20T03:17:21;24.90;99.90
3925;DHT22;1977;52.274;10.518;2023-08-20T03:19:54;24.90;99.90
3925;DHT22;1977;52.274;10.518;2023-08-20T03:22:22;24.70;99.90
3925;DHT22;1977;52.274;10.518;2023-08-20T03:24:49;24.70;99.90
3925;DHT22;1977;52.274;10.518;2023-08-20T03:27:16;24.70;99.90
3925;DHT22;1977;52.274;10.518;2023-08-20T03:29:44;24.70;99.90
3925;DHT22;1977;52.274;10.518;2023-08-20T03:32:11;24.60;99.90
3925;DHT22;1977;52.274;10.518;2023-08-20T03:34:38;24.60;99.90
3925;DHT22;1977;52.274;10.518;2023-08-20T03:37:05;24.70;99.90
3925;DHT22;1977;52.274;10.518;2023-08-20T03:39:31;24.60;99.90
3925;DHT22;1977;52.274;10.518;2023-08-20T03:41:58;24.50;99.90
3925;DHT22;1977;52.274;10.518;2023-08-20T03:44:25;24.40;99.90
3925;DHT22;1977;52.274;10.518;2023-08-20T03:46:53;24.40;99.90
3925;DHT22;1977;52.274;10.518;2023-08-20T03:49:20;24.40;99.90
3925;DHT22;1977;52.274;10.518;2023-08-20T03:51:47;24.40;99.90
3925;DHT22;1977;52.274;10.518;2023-08-20T03:54:14;24.30;99.90
3925;DHT22;1977;52.274;10.518;2023-08-20T03:56:41;24.40;99.90
3925;DHT22;1977;52.274;10.518;2023-08-20T03:59:08;24.30;99.90
3925;DHT22;1977;52.274;10.518;2023-08-20T04:01:35;24.30;99.90
3925;DHT22;1977;52.274;10.518;2023-08-20T04:04:04;24.30;99.90
3925;DHT22;1977;52.274;10.518;2023-08-20T04:06:31;24.20;99.90
3925;DHT22;1977;52.274;10.518;2023-08-20T04:08:57;24.20;99.90
3925;DHT22;1977;52.274;10.518;2023-08-20T04:11:24;24.20;99.90
3925;DHT22;1977;52.274;10.518;2023-08-20T04:13:51;24.10;99.90
3925;DHT22;1977;52.274;10.518;2023-08-20T04:16:18;24.20;99.90
3925;DHT22;1977;52.274;10.518;2023-08-20T04:18:44;24.00;99.90
3925;DHT22;1977;52.274;10.518;2023-08-20T04:21:12;24.00;99.90
3925;DHT22;1977;52.274;10.518;2023-08-20T04:23:39;24.00;99.90
3925;DHT22;1977;52.274;10.518;2023-08-20T04:26:06;24.00;99.90
3925;DHT22;1977;52.274;10.518;2023-08-20T04:28:33;24.00;99.90
3925;DHT22;1977;52.274;10.518;2023-08-20T04:31:00;24.10;99.90
3925;DHT22;1977;52.274;10.518;2023-08-20T04:33:28;24.00;99.90
3925;DHT22;1977;52.274;10.518;2023-08-20T04:35:54;24.00;99.90
3925;DHT22;1977;52.274;10.518;2023-08-20T04:38:22;24.00;99.90
3925;DHT22;1977;52.274;10.518;2023-08-20T04:40:49;24.00;99.90
3925;DHT22;1977;52.274;10.518;2023-08-20T04:43:16;24.30;99.90
3925;DHT22;1977;52.274;10.518;2023-08-20T04:45:43;24.20;99.90
3925;DHT22;1977;52.274;10.518;2023-08-20T04:48:09;24.20;99.90
3925;DHT22;1977;52.274;10.518;2023-08-20T04:50:36;24.20;99.90
3925;DHT22;1977;52.274;10.518;2023-08-20T04:53:03;24.30;99.90
3925;DHT22;1977;52.274;10.518;2023-08-20T04:55:31;24.30;99.90
3925;DHT22;1977;52.274;10.518;2023-08-20T04:57:58;24.30;99.90
3925;DHT22;1977;52.274;10.518;2023-08-20T05:00:26;24.40;99.90
3925;DHT22;1977;52.274;10.518;2023-08-20T05:02:54;24.40;99.90
3925;DHT22;1977;52.274;10.518;2023-08-20T05:05:21;24.40;99.90
3925;DHT22;1977;52.274;10.518;2023-08-20T05:07:48;24.40;99.90
3925;DHT22;1977;52.274;10.518;2023-08-20T05:10:15;24.40;99.90
3925;DHT22;1977;52.274;10.518;2023-08-20T05:12:43;24.50;99.90
3925;DHT22;1977;52.274;10.518;2023-08-20T05:15:10;24.60;99.90
3925;DHT22;1977;52.274;10.518;2023-08-20T05:17:37;24.60;99.90
3925;DHT22;1977;52.274;10.518;2023-08-20T05:20:05;24.50;99.90
3925;DHT22;1977;52.274;10.518;2023-08-20T05:22:34;24.50;99.90
3925;DHT22;1977;52.274;10.518;2023-08-20T05:25:01;24.50;99.90
3925;DHT22;1977;52.274;10.518;2023-08-20T05:27:27;24.70;99.90
3925;DHT22;1977;52.274;10.518;2023-08-20T05:29:56;24.60;99.90
3925;DHT22;1977;52.274;10.518;2023-08-20T05:32:22;24.60;99.90
3925;DHT22;1977;52.274;10.518;2023-08-20T05:34:49;24.60;99.90
3925;DHT22;1977;52.274;10.518;2023-08-20T05:37:16;24.60;99.90
3925;DHT22;1977;52.274;10.518;2023-08-20T05:39:43;24.50;99.90
3925;DHT22;1977;52.274;10.518;2023-08-20T05:42:10;24.60;99.90
3925;DHT22;1977;52.274;10.518;2023-08-20T05:44:37;24.50;99.90
3925;DHT22;1977;52.274;10.518;2023-08-20T05:47:05;24.60;99.90
3925;DHT22;1977;52.274;10.518;2023-08-20T05:49:32;24.50;99.90
3925;DHT22;1977;52.274;10.518;2023-08-20T05:51:59;24.50;99.90
3925;DHT22;1977;52.274;10.518;2023-08-20T05:54:26;24.60;99.90
3925;DHT22;1977;52.274;10.518;2023-08-20T05:56:52;24.60;99.90
3925;DHT22;1977;52.274;10.518;2023-08-20T05:59:19;24.60;99.90
3925;DHT22;1977;52.274;10.518;2023-08-20T06:01:46;24.60;99.90
3925;DHT22;1977;52.274;10.518;2023-08-20T06:04:14;24.70;99.90
3925;DHT22;1977;52.274;10.518;2023-08-20T06:06:41;24.70;99.90
3925;DHT22;1977;52.274;10.518;2023-08-20T06:09:07;24.80;99.90
3925;DHT22;1977;52.274;10.518;2023-08-20T06:11:34;24.80;99.90
3925;DHT22;1977;52.274;10.518;2023-08-20T06:14:01;24.80;99.90
3925;DHT22;1977;52.274;10.518;2023-08-20T06:16:28;24.80;99.90
3925;DHT22;1977;52.274;10.518;2023-08-20T06:18:55;24.80;99.90
3925;DHT22;1977;52.274;10.518;2023-08-20T06:21:23;24.80;99.90
3925;DHT22;1977;52.274;10.518;2023-08-20T06:23:50;24.90;99.90
3925;DHT22;1977;52.274;10.518;2023-08-20T06:26:16;24.90;99.90
3925;DHT22;1977;52.274;10.518;2023-08-20T06:28:43;24.80;99.90
3925;DHT22;1977;52.274;10.518;2023-08-20T06:31:10;24.80;99.90
3925;DHT22;1977;52.274;10.518;2023-08-20T06:33:36;24.80;99.90
3925;DHT22;1977;52.274;10.518;2023-08-20T06:36:04;24.80;99.90
3925;DHT22;1977;52.274;10.518;2023-08-20T06:38:32;24.70;99.90
3925;DHT22;1977;52.274;10.518;2023-08-20T06:40:59;24.80;99.90
3925;DHT22;1977;52.274;10.518;2023-08-20T06:43:25;24.70;99.90
3925;DHT22;1977;52.274;10.518;2023-08-20T06:45:52;24.70;99.90
3925;DHT22;1977;52.274;10.518;2023-08-20T06:48:19;24.80;99.90
3925;DHT22;1977;52.274;10.518;2023-08-20T06:50:47;24.80;99.90
3925;DHT22;1977;52.274;10.518;2023-08-20T06:53:14;24.90;99.90
3925;DHT22;1977;52.274;10.518;2023-08-20T06:55:42;24.90;99.90
3925;DHT22;1977;52.274;10.518;2023-08-20T06:58:09;25.00;99.90
3925;DHT22;1977;52.274;10.518;2023-08-20T07:00:36;25.10;99.90
3925;DHT22;1977;52.274;10.518;2023-08-20T07:03:03;25.10;99.90
3925;DHT22;1977;52.274;10.518;2023-08-20T07:05:30;25.20;99.90
3925;DHT22;1977;52.274;10.518;2023-08-20T07:07:57;25.30;99.90
3925;DHT22;1977;52.274;10.518;2023-08-20T07:10:23;25.40;99.90
3925;DHT22;1977;52.274;10.518;2023-08-20T07:12:51;25.50;99.90
3925;DHT22;1977;52.274;10.518;2023-08-20T07:15:18;25.60;99.90
3925;DHT22;1977;52.274;10.518;2023-08-20T07:17:45;25.70;99.90
3925;DHT22;1977;52.274;10.518;2023-08-20T07:20:12;25.80;99.90
3925;DHT22;1977;52.274;10.518;2023-08-20T07:22:38;25.90;99.90
3925;DHT22;1977;52.274;10.518;2023-08-20T07:25:05;25.90;99.90
3925;DHT22;1977;52.274;10.518;2023-08-20T07:27:33;26.00;99.90
3925;DHT22;1977;52.274;10.518;2023-08-20T07:30:19;26.10;99.90
3925;DHT22;1977;52.274;10.518;2023-08-20T07:32:45;26.20;99.90
3925;DHT22;1977;52.274;10.518;2023-08-20T07:35:12;26.30;99.90
3925;DHT22;1977;52.274;10.518;2023-08-20T07:37:39;26.40;99.90
3925;DHT22;1977;52.274;10.518;2023-08-20T07:40:07;26.40;99.90
3925;DHT22;1977;52.274;10.518;2023-08-20T07:42:34;26.50;99.90
3925;DHT22;1977;52.274;10.518;2023-08-20T07:45:02;26.50;99.90
3925;DHT22;1977;52.274;10.518;2023-08-20T07:47:30;26.50;99.90
3925;DHT22;1977;52.274;10.518;2023-08-20T07:49:57;26.50;99.90
3925;DHT22;1977;52.274;10.518;2023-08-20T07:52:23;26.60;99.90
3925;DHT22;1977;52.274;10.518;2023-08-20T07:54:50;26.70;99.90
3925;DHT22;1977;52.274;10.518;2023-08-20T07:57:17;26.80;99.90
3925;DHT22;1977;52.274;10.518;2023-08-20T07:59:44;26.90;99.90
3925;DHT22;1977;52.274;10.518;2023-08-20T08:02:11;26.90;99.90
3925;DHT22;1977;52.274;10.518;2023-08-20T08:04:39;27.00;99.90
3925;DHT22;1977;52.274;10.518;2023-08-20T08:07:06;27.10;99.90
3925;DHT22;1977;52.274;10.518;2023-08-20T08:09:32;27.10;99.90
3925;DHT22;1977;52.274;10.518;2023-08-20T08:12:00;27.20;99.90
3925;DHT22;1977;52.274;10.518;2023-08-20T08:14:27;27.30;99.90
3925;DHT22;1977;52.274;10.518;2023-08-20T08:16:53;27.30;99.90
3925;DHT22;1977;52.274;10.518;2023-08-20T08:19:20;27.40;99.90
3925;DHT22;1977;52.274;10.518;2023-08-20T08:21:48;27.40;99.90
3925;DHT22;1977;52.274;10.518;2023-08-20T08:24:15;27.50;99.90
3925;DHT22;1977;52.274;10.518;2023-08-20T08:26:42;27.50;99.90
3925;DHT22;1977;52.274;10.518;2023-08-20T08:29:09;27.50;99.90
3925;DHT22;1977;52.274;10.518;2023-08-20T08:31:36;27.60;99.90
3925;DHT22;1977;52.274;10.518;2023-08-20T08:34:03;27.60;99.90
3925;DHT22;1977;52.274;10.518;2023-08-20T08:36:30;27.60;99.90
3925;DHT22;1977;52.274;10.518;2023-08-20T08:38:58;27.60;99.90
3925;DHT22;1977;52.274;10.518;2023-08-20T08:41:28;27.70;99.90
3925;DHT22;1977;52.274;10.518;2023-08-20T08:43:56;27.70;99.90
3925;DHT22;1977;52.274;10.518;2023-08-20T08:46:23;27.70;99.90
3925;DHT22;1977;52.274;10.518;2023-08-20T08:48:51;27.70;99.90
3925;DHT22;1977;52.274;10.518;2023-08-20T08:51:18;27.80;99.90
3925;DHT22;1977;52.274;10.518;2023-08-20T08:53:46;27.80;99.90
3925;DHT22;1977;52.274;10.518;2023-08-20T08:56:14;28.00;99.90
3925;DHT22;1977;52.274;10.518;2023-08-20T08:58:41;27.90;99.90
3925;DHT22;1977;52.274;10.518;2023-08-20T09:01:08;27.90;99.90
3925;DHT22;1977;52.274;10.518;2023-08-20T09:03:34;27.90;99.90
3925;DHT22;1977;52.274;10.518;2023-08-20T09:06:03;27.90;99.90
3925;DHT22;1977;52.274;10.518;2023-08-20T09:08:34;27.90;99.90
3925;DHT22;1977;52.274;10.518;2023-08-20T09:11:02;27.90;99.90
3925;DHT22;1977;52.274;10.518;2023-08-20T09:13:35;27.90;99.90
3925;DHT22;1977;52.274;10.518;2023-08-20T09:16:04;28.00;99.90
3925;DHT22;1977;52.274;10.518;2023-08-20T09:18:32;28.00;99.90
3925;DHT22;1977;52.274;10.518;2023-08-20T09:20:59;28.00;99.90
3925;DHT22;1977;52.274;10.518;2023-08-20T09:23:28;28.00;99.90
3925;DHT22;1977;52.274;10.518;2023-08-20T09:25:56;28.00;99.90
3925;DHT22;1977;52.274;10.518;2023-08-20T09:28:22;28.10;99.90
3925;DHT22;1977;52.274;10.518;2023-08-20T09:30:58;28.10;99.90
3925;DHT22;1977;52.274;10.518;2023-08-20T09:33:27;28.00;99.90
3925;DHT22;1977;52.274;10.518;2023-08-20T09:35:54;28.10;99.90
3925;DHT22;1977;52.274;10.518;2023-08-20T09:38:23;28.10;99.90
3925;DHT22;1977;52.274;10.518;2023-08-20T09:40:52;28.10;99.90
3925;DHT22;1977;52.274;10.518;2023-08-20T09:43:23;28.10;99.90
3925;DHT22;1977;52.274;10.518;2023-08-20T09:45:54;28.10;99.90
3925;DHT22;1977;52.274;10.518;2023-08-20T09:48:24;28.10;99.90
3925;DHT22;1977;52.274;10.518;2023-08-20T09:50:51;28.10;99.90
3925;DHT22;1977;52.274;10.518;2023-08-20T09:53:26;28.20;99.90
3925;DHT22;1977;52.274;10.518;2023-08-20T09:55:56;28.20;99.90
3925;DHT22;1977;52.274;10.518;2023-08-20T09:58:26;28.20;99.90
3925;DHT22;1977;52.274;10.518;2023-08-20T10:00:53;28.20;99.90
3925;DHT22;1977;52.274;10.518;2023-08-20T10:03:23;28.20;99.90
3925;DHT22;1977;52.274;10.518;2023-08-20T10:05:50;28.20;99.90
3925;DHT22;1977;52.274;10.518;2023-08-20T10:08:17;28.20;99.90
3925;DHT22;1977;52.274;10.518;2023-08-20T10:10:45;28.20;99.90
3925;DHT22;1977;52.274;10.518;2023-08-20T10:13:13;28.20;99.90
3925;DHT22;1977;52.274;10.518;2023-08-20T10:15:40;28.30;99.90
3925;DHT22;1977;52.274;10.518;2023-08-20T10:18:08;28.30;99.90
3925;DHT22;1977;52.274;10.518;2023-08-20T10:20:38;28.30;99.90
3925;DHT22;1977;52.274;10.518;2023-08-20T10:23:05;28.30;99.90
3925;DHT22;1977;52.274;10.518;2023-08-20T10:25:40;28.40;99.90
3925;DHT22;1977;52.274;10.518;2023-08-20T10:28:19;28.40;99.90
3925;DHT22;1977;52.274;10.518;2023-08-20T10:31:06;28.40;99.90
3925;DHT22;1977;52.274;10.518;2023-08-20T10:33:37;28.40;99.90
3925;DHT22;1977;52.274;10.518;2023-08-20T10:36:10;28.40;99.90
3925;DHT22;1977;52.274;10.518;2023-08-20T10:38:37;28.30;99.90
3925;DHT22;1977;52.274;10.518;2023-08-20T10:41:06;28.30;99.90
3925;DHT22;1977;52.274;10.518;2023-08-20T10:43:34;28.30;99.90
3925;DHT22;1977;52.274;10.518;2023-08-20T10:46:06;28.30;99.90
3925;DHT22;1977;52.274;10.518;2023-08-20T10:48:34;28.30;99.90
3925;DHT22;1977;52.274;10.518;2023-08-20T10:51:13;28.30;99.90
3925;DHT22;1977;52.274;10.518;2023-08-20T10:53:41;28.30;99.90
3925;DHT22;1977;52.274;10.518;2023-08-20T10:56:10;28.30;99.90
3925;DHT22;1977;52.274;10.518;2023-08-20T10:58:40;28.10;99.90
3925;DHT22;1977;52.274;10.518;2023-08-20T11:01:19;28.30;99.90
3925;DHT22;1977;52.274;10.518;2023-08-20T11:03:47;28.30;99.90
3925;DHT22;1977;52.274;10.518;2023-08-20T11:06:15;28.30;99.90
3925;DHT22;1977;52.274;10.518;2023-08-20T11:08:42;28.30;99.90
3925;DHT22;1977;52.274;10.518;2023-08-20T11:11:10;28.30;99.90
3925;DHT22;1977;52.274;10.518;2023-08-20T11:13:38;28.40;99.90
3925;DHT22;1977;52.274;10.518;2023-08-20T11:16:05;28.30;99.90
3925;DHT22;1977;52.274;10.518;2023-08-20T11:18:33;28.30;99.90
3925;DHT22;1977;52.274;10.518;2023-08-20T11:21:00;28.30;99.90
3925;DHT22;1977;52.274;10.518;2023-08-20T11:23:29;28.30;99.90
3925;DHT22;1977;52.274;10.518;2023-08-20T11:25:56;28.30;99.90
3925;DHT22;1977;52.274;10.518;2023-08-20T11:28:25;28.30;99.90
3925;DHT22;1977;52.274;10.518;2023-08-20T11:30:53;28.30;99.90
3925;DHT22;1977;52.274;10.518;2023-08-20T11:33:21;28.30;99.90
3925;DHT22;1977;52.274;10.518;2023-08-20T11:35:48;28.30;99.90
3925;DHT22;1977;52.274;10.518;2023-08-20T11:38:15;28.30;99.90
3925;DHT22;1977;52.274;10.518;2023-08-20T11:40:43;28.30;99.90
3925;DHT22;1977;52.274;10.518;2023-08-20T11:43:10;28.30;99.90
3925;DHT22;1977;52.274;10.518;2023-08-20T11:45:44;28.30;99.90
3925;DHT22;1977;52.274;10.518;2023-08-20T11:48:12;28.40;99.90
3925;DHT22;1977;52.274;10.518;2023-08-20T11:50:39;28.30;99.90
3925;DHT22;1977;52.274;10.518;2023-08-20T11:53:07;28.30;99.90
3925;DHT22;1977;52.274;10.518;2023-08-20T11:55:34;28.30;99.90
3925;DHT22;1977;52.274;10.518;2023-08-20T11:58:03;28.20;99.90
3925;DHT22;1977;52.274;10.518;2023-08-20T12:00:31;28.20;99.90
3925;DHT22;1977;52.274;10.518;2023-08-20T12:02:58;28.20;99.90
3925;DHT22;1977;52.274;10.518;2023-08-20T12:05:29;28.20;99.90
3925;DHT22;1977;52.274;10.518;2023-08-20T12:07:56;28.20;99.90
3925;DHT22;1977;52.274;10.518;2023-08-20T12:10:25;28.20;99.90
3925;DHT22;1977;52.274;10.518;2023-08-20T12:12:52;28.20;99.90
3925;DHT22;1977;52.274;10.518;2023-08-20T12:15:20;28.20;99.90
3925;DHT22;1977;52.274;10.518;2023-08-20T12:18:00;28.20;99.90
3925;DHT22;1977;52.274;10.518;2023-08-20T12:20:31;28.20;99.90
3925;DHT22;1977;52.274;10.518;2023-08-20T12:23:00;28.10;99.90
3925;DHT22;1977;52.274;10.518;2023-08-20T12:25:29;28.20;99.90
3925;DHT22;1977;52.274;10.518;2023-08-20T12:27:56;28.10;99.90
3925;DHT22;1977;52.274;10.518;2023-08-20T12:30:24;28.10;99.90
3925;DHT22;1977;52.274;10.518;2023-08-20T12:32:51;28.10;99.90
3925;DHT22;1977;52.274;10.518;2023-08-20T12:35:18;28.10;99.90
3925;DHT22;1977;52.274;10.518;2023-08-20T12:37:45;28.10;99.90
3925;DHT22;1977;52.274;10.518;2023-08-20T12:40:12;28.10;99.90
3925;DHT22;1977;52.274;10.518;2023-08-20T12:42:45;28.10;99.90
3925;DHT22;1977;52.274;10.518;2023-08-20T12:45:14;28.10;99.90
3925;DHT22;1977;52.274;10.518;2023-08-20T12:47:42;28.10;99.90
3925;DHT22;1977;52.274;10.518;2023-08-20T12:50:09;28.10;99.90
3925;DHT22;1977;52.274;10.518;2023-08-20T12:52:38;28.10;99.90
3925;DHT22;1977;52.274;10.518;2023-08-20T12:55:05;28.10;99.90
3925;DHT22;1977;52.274;10.518;2023-08-20T12:57:34;28.10;99.90
3925;DHT22;1977;52.274;10.518;2023-08-20T13:00:01;28.10;99.90
3925;DHT22;1977;52.274;10.518;2023-08-20T13:02:33;28.10;99.90
3925;DHT22;1977;52.274;10.518;2023-08-20T13:05:02;28.10;99.90
3925;DHT22;1977;52.274;10.518;2023-08-20T13:07:30;28.10;99.90
3925;DHT22;1977;52.274;10.518;2023-08-20T13:09:58;28.10;99.90
3925;DHT22;1977;52.274;10.518;2023-08-20T13:12:27;28.10;99.90
3925;DHT22;1977;52.274;10.518;2023-08-20T13:14:54;28.10;99.90
3925;DHT22;1977;52.274;10.518;2023-08-20T13:17:22;28.20;99.90
3925;DHT22;1977;52.274;10.518;2023-08-20T13:19:49;28.20;99.90
3925;DHT22;1977;52.274;10.518;2023-08-20T13:22:17;28.20;99.90
3925;DHT22;1977;52.274;10.518;2023-08-20T13:24:44;28.20;99.90
3925;DHT22;1977;52.274;10.518;2023-08-20T13:27:10;28.20;99.90
3925;DHT22;1977;52.274;10.518;2023-08-20T13:29:37;28.20;99.90
3925;DHT22;1977;52.274;10.518;2023-08-20T13:32:04;28.20;99.90
3925;DHT22;1977;52.274;10.518;2023-08-20T13:34:31;28.20;99.90
3925;DHT22;1977;52.274;10.518;2023-08-20T13:36:57;28.20;99.90
3925;DHT22;1977;52.274;10.518;2023-08-20T13:39:26;28.20;99.90
3925;DHT22;1977;52.274;10.518;2023-08-20T13:41:53;28.20;99.90
3925;DHT22;1977;52.274;10.518;2023-08-20T13:44:20;28.10;99.90
3925;DHT22;1977;52.274;10.518;2023-08-20T13:46:47;28.20;99.90
3925;DHT22;1977;52.274;10.518;2023-08-20T13:49:13;28.10;99.90
3925;DHT22;1977;52.274;10.518;2023-08-20T13:51:40;28.20;99.90
3925;DHT22;1977;52.274;10.518;2023-08-20T13:54:07;28.20;99.90
3925;DHT22;1977;52.274;10.518;2023-08-20T13:56:35;28.10;99.90
3925;DHT22;1977;52.274;10.518;2023-08-20T13:59:02;28.10;99.90
3925;DHT22;1977;52.274;10.518;2023-08-20T14:01:29;28.20;99.90
3925;DHT22;1977;52.274;10.518;2023-08-20T14:03:55;28.20;99.90
3925;DHT22;1977;52.274;10.518;2023-08-20T14:06:22;28.20;99.90
3925;DHT22;1977;52.274;10.518;2023-08-20T14:08:49;28.20;99.90
3925;DHT22;1977;52.274;10.518;2023-08-20T14:11:16;28.20;99.90
3925;DHT22;1977;52.274;10.518;2023-08-20T14:13:44;28.20;99.90
3925;DHT22;1977;52.274;10.518;2023-08-20T14:16:10;28.20;99.90
3925;DHT22;1977;52.274;10.518;2023-08-20T14:18:37;28.20;99.90
3925;DHT22;1977;52.274;10.518;2023-08-20T14:21:04;28.10;99.90
3925;DHT22;1977;52.274;10.518;2023-08-20T14:23:31;28.10;99.90
3925;DHT22;1977;52.274;10.518;2023-08-20T14:25:58;28.20;99.90
3925;DHT22;1977;52.274;10.518;2023-08-20T14:28:24;28.20;99.90
3925;DHT22;1977;52.274;10.518;2023-08-20T14:30:53;28.20;99.90
3925;DHT22;1977;52.274;10.518;2023-08-20T14:33:20;28.40;99.90
3925;DHT22;1977;52.274;10.518;2023-08-20T14:35:47;28.10;99.90
3925;DHT22;1977;52.274;10.518;2023-08-20T14:38:14;28.10;99.90
3925;DHT22;1977;52.274;10.518;2023-08-20T14:40:41;28.10;99.90
3925;DHT22;1977;52.274;10.518;2023-08-20T14:43:08;28.10;99.90
3925;DHT22;1977;52.274;10.518;2023-08-20T14:45:35;28.10;99.90
3925;DHT22;1977;52.274;10.518;2023-08-20T14:48:03;28.10;99.90
3925;DHT22;1977;52.274;10.518;2023-08-20T14:50:30;28.10;99.90
3925;DHT22;1977;52.274;10.518;2023-08-20T14:52:57;28.10;99.90
3925;DHT22;1977;52.274;10.518;2023-08-20T14:55:23;28.10;99.90
3925;DHT22;1977;52.274;10.518;2023-08-20T14:57:50;28.10;99.90
3925;DHT22;1977;52.274;10.518;2023-08-20T15:00:17;28.10;99.90
3925;DHT22;1977;52.274;10.518;2023-08-20T15:02:44;28.10;99.90
3925;DHT22;1977;52.274;10.518;2023-08-20T15:05:12;28.20;99.90
3925;DHT22;1977;52.274;10.518;2023-08-20T15:07:39;28.30;99.90
3925;DHT22;1977;52.274;10.518;2023-08-20T15:10:07;28.10;99.90
3925;DHT22;1977;52.274;10.518;2023-08-20T15:12:35;28.20;99.90
3925;DHT22;1977;52.274;10.518;2023-08-20T15:15:03;28.20;99.90
3925;DHT22;1977;52.274;10.518;2023-08-20T15:17:30;28.20;99.90
3925;DHT22;1977;52.274;10.518;2023-08-20T15:19:58;28.10;99.90
3925;DHT22;1977;52.274;10.518;2023-08-20T15:22:26;28.20;99.90
3925;DHT22;1977;52.274;10.518;2023-08-20T15:24:53;28.10;99.90
3925;DHT22;1977;52.274;10.518;2023-08-20T15:27:21;28.10;99.90
3925;DHT22;1977;52.274;10.518;2023-08-20T15:29:48;28.10;99.90
3925;DHT22;1977;52.274;10.518;2023-08-20T15:32:15;28.20;99.90
3925;DHT22;1977;52.274;10.518;2023-08-20T15:34:41;28.20;99.90
3925;DHT22;1977;52.274;10.518;2023-08-20T15:37:09;28.20;99.90
3925;DHT22;1977;52.274;10.518;2023-08-20T15:39:38;28.20;99.90
3925;DHT22;1977;52.274;10.518;2023-08-20T15:42:05;28.20;99.90
3925;DHT22;1977;52.274;10.518;2023-08-20T15:44:32;28.20;99.90
3925;DHT22;1977;52.274;10.518;2023-08-20T15:46:59;28.20;99.90
3925;DHT22;1977;52.274;10.518;2023-08-20T15:49:26;28.20;99.90